Time;durP1;ratioP1;P1;durP2;ratioP2;P2;SDS_P1;SDS_P2;PMS_P1;PMS_P2;Temp;Humidity;BMP_temperature;BMP_pressure;BME280_temperature;BME280_humidity;BME280_pressure;Samples;Min_cycle;Max_cycle;Signal;HPM_P1;HPM_P2
2022/08/15 00:01:17;;;;;;;7.87;7.07;;;23.00;68.60;;;;;;634055;226;26624;-70
2022/08/15 00:03:44;;;;;;;7.80;6.80;;;22.90;68.30;;;;;;635542;224;26802;-70
2022/08/15 00:06:11;;;;;;;8.65;7.30;;;22.90;68.70;;;;;;635283;226;26564;-70
2022/08/15 00:08:38;;;;;;;7.03;6.32;;;22.80;70.80;;;;;;635029;226;26965;-70
2022/08/15 00:11:07;;;;;;;11.07;6.80;;;22.80;69.90;;;;;;634787;225;26526;-70
2022/08/15 00:13:34;;;;;;;7.95;6.95;;;22.80;69.80;;;;;;634814;227;27425;-70
2022/08/15 00:16:01;;;;;;;8.20;7.40;;;22.70;69.50;;;;;;634940;226;26566;-70
2022/08/15 00:18:28;;;;;;;11.32;7.45;;;22.70;70.50;;;;;;635082;226;26787;-70
2022/08/15 00:20:55;;;;;;;7.97;6.80;;;22.70;69.80;;;;;;634666;227;26539;-69
2022/08/15 00:23:23;;;;;;;7.18;6.47;;;22.60;70.60;;;;;;634434;226;26800;-69
2022/08/15 00:25:50;;;;;;;13.70;7.20;;;22.60;70.90;;;;;;634413;226;26554;-70
2022/08/15 00:28:17;;;;;;;11.65;7.60;;;22.60;70.80;;;;;;634423;226;26988;-70
2022/08/15 00:30:44;;;;;;;7.78;7.07;;;22.60;71.80;;;;;;634360;227;26540;-70
2022/08/15 00:33:11;;;;;;;8.57;7.85;;;22.60;72.30;;;;;;634377;227;26790;-70
2022/08/15 00:35:40;;;;;;;8.88;6.90;;;22.60;73.50;;;;;;634517;227;26515;-70
2022/08/15 00:38:07;;;;;;;8.63;7.50;;;22.60;73.50;;;;;;634438;226;26494;-70
2022/08/15 00:41:39;;;;;;;9.68;7.37;;;22.60;74.60;;;;;;634178;226;26633;-70
2022/08/15 00:43:03;;;;;;;7.87;7.07;;;22.60;74.70;;;;;;632301;227;26566;-70
2022/08/15 00:45:32;;;;;;;7.72;6.90;;;22.60;74.10;;;;;;634189;226;26574;-70
2022/08/15 00:50:32;;;;;;;9.38;7.35;;;22.50;75.10;;;;;;634166;227;27265;-70
2022/08/15 00:53:00;;;;;;;8.38;7.57;;;22.50;76.70;;;;;;634127;226;26552;-70
2022/08/15 00:55:27;;;;;;;7.87;7.18;;;22.40;74.90;;;;;;634136;227;26583;-71
2022/08/15 00:57:54;;;;;;;8.07;7.28;;;22.40;75.80;;;;;;634136;226;26817;-70
2022/08/15 01:00:21;;;;;;;8.23;7.35;;;22.30;77.20;;;;;;634178;226;26578;-68
2022/08/15 01:02:48;;;;;;;8.05;7.25;;;22.30;77.20;;;;;;634213;227;26772;-68
2022/08/15 01:05:16;;;;;;;8.15;7.25;;;22.20;77.70;;;;;;634233;226;26606;-70
2022/08/15 01:07:43;;;;;;;8.07;7.37;;;22.20;78.90;;;;;;634127;226;27244;-70
2022/08/15 01:10:10;;;;;;;7.87;7.10;;;22.20;79.80;;;;;;634098;226;26594;-70
2022/08/15 01:12:37;;;;;;;7.65;6.93;;;22.20;79.70;;;;;;634171;226;26774;-70
2022/08/15 01:15:05;;;;;;;7.57;6.97;;;22.20;79.40;;;;;;635432;224;26617;-70
2022/08/15 01:17:32;;;;;;;8.32;7.32;;;22.20;80.90;;;;;;635176;222;26562;-70
2022/08/15 01:20:00;;;;;;;7.90;7.20;;;22.20;81.10;;;;;;635056;226;26768;-70
2022/08/15 01:22:34;;;;;;;9.77;7.62;;;22.10;80.90;;;;;;634703;226;26787;-70
2022/08/15 01:25:08;;;;;;;7.53;6.85;;;22.10;81.60;;;;;;634008;227;26621;-70
2022/08/15 01:27:37;;;;;;;7.45;6.72;;;22.00;81.70;;;;;;634642;227;26630;-70
2022/08/15 01:30:05;;;;;;;8.98;7.47;;;22.00;81.70;;;;;;634240;227;26563;-70
2022/08/15 01:32:32;;;;;;;9.15;7.95;;;22.00;82.60;;;;;;634572;227;26519;-70
2022/08/15 01:35:02;;;;;;;11.23;8.30;;;22.00;82.60;;;;;;634506;226;26793;-70
2022/08/15 01:37:26;;;;;;;7.85;7.15;;;22.00;82.60;;;;;;634160;227;26527;-70
2022/08/15 01:39:54;;;;;;;8.10;7.40;;;21.90;83.50;;;;;;634487;226;27229;-70
2022/08/15 01:42:22;;;;;;;8.63;7.93;;;21.90;83.40;;;;;;634617;227;26507;-70
2022/08/15 01:44:49;;;;;;;7.50;6.80;;;21.90;85.30;;;;;;634743;226;26547;-70
2022/08/15 01:47:19;;;;;;;8.20;7.45;;;21.80;84.90;;;;;;634465;227;26810;-70
2022/08/15 01:49:49;;;;;;;8.55;7.68;;;21.80;86.20;;;;;;634398;227;26530;-70
2022/08/15 01:52:16;;;;;;;8.25;7.57;;;21.80;86.00;;;;;;634092;227;26593;-70
2022/08/15 01:54:44;;;;;;;8.68;7.97;;;21.70;87.20;;;;;;634109;227;26837;-70
2022/08/15 01:57:11;;;;;;;8.40;7.68;;;21.70;87.40;;;;;;633951;227;26566;-70
2022/08/15 01:59:38;;;;;;;8.75;7.70;;;21.70;88.40;;;;;;634078;226;26582;-70
2022/08/15 02:02:06;;;;;;;8.45;7.75;;;21.70;89.10;;;;;;634110;226;26577;-70
2022/08/15 02:04:34;;;;;;;8.25;7.40;;;21.60;90.20;;;;;;634110;223;26577;-70
2022/08/15 02:07:03;;;;;;;8.82;8.02;;;21.60;90.00;;;;;;634116;227;26558;-70
2022/08/15 02:09:30;;;;;;;8.05;7.30;;;21.60;90.00;;;;;;633911;227;26581;-70
2022/08/15 02:12:01;;;;;;;7.90;7.15;;;21.60;90.40;;;;;;634165;226;26584;-70
2022/08/15 02:14:29;;;;;;;8.95;8.02;;;21.60;90.40;;;;;;634113;227;26626;-70
2022/08/15 02:16:55;;;;;;;8.70;7.87;;;21.60;90.80;;;;;;634109;226;27264;-70
2022/08/15 02:19:23;;;;;;;8.60;7.80;;;21.50;91.20;;;;;;634147;226;26573;-70
2022/08/15 02:21:50;;;;;;;8.93;7.87;;;21.50;91.50;;;;;;634179;226;26796;-70
2022/08/15 02:24:17;;;;;;;8.80;7.75;;;21.50;91.40;;;;;;634236;223;26568;-70
2022/08/15 02:26:44;;;;;;;8.65;7.75;;;21.50;91.60;;;;;;635409;224;26832;-70
2022/08/15 02:29:11;;;;;;;9.25;8.35;;;21.40;91.80;;;;;;635476;226;26506;-70
2022/08/15 02:31:39;;;;;;;8.95;8.05;;;21.40;91.80;;;;;;635214;225;26533;-69
2022/08/15 02:34:07;;;;;;;13.65;7.85;;;21.40;92.30;;;;;;635124;225;26549;-70
2022/08/15 02:36:35;;;;;;;8.70;7.95;;;21.30;92.70;;;;;;634837;226;26612;-70
2022/08/15 02:39:03;;;;;;;9.93;7.95;;;21.30;93.70;;;;;;634685;227;26579;-70
2022/08/15 02:41:31;;;;;;;9.20;7.60;;;21.30;92.80;;;;;;635021;227;26588;-70
2022/08/15 02:43:59;;;;;;;8.40;7.60;;;21.20;92.80;;;;;;634840;223;26774;-70
2022/08/15 02:46:26;;;;;;;8.90;8.07;;;21.20;93.90;;;;;;634708;227;26526;-70
2022/08/15 02:48:54;;;;;;;9.02;8.25;;;21.10;93.60;;;;;;634534;226;26526;-70
2022/08/15 02:51:23;;;;;;;8.45;7.68;;;21.10;94.10;;;;;;634437;227;26547;-70
2022/08/15 02:53:50;;;;;;;9.10;8.20;;;21.10;93.80;;;;;;634489;227;26534;-70
2022/08/15 02:56:18;;;;;;;9.38;8.48;;;21.10;93.80;;;;;;634455;226;26527;-70
2022/08/15 02:58:45;;;;;;;9.10;8.18;;;21.10;94.40;;;;;;634520;226;26542;-70
2022/08/15 03:01:12;;;;;;;9.07;8.18;;;21.10;93.80;;;;;;634395;226;26744;-70
2022/08/15 03:03:39;;;;;;;8.52;7.80;;;21.10;94.70;;;;;;634187;223;26606;-70
2022/08/15 03:06:08;;;;;;;10.13;7.97;;;21.10;95.60;;;;;;634095;227;26818;-70
2022/08/15 03:08:35;;;;;;;8.65;7.53;;;21.00;95.70;;;;;;634067;227;26590;-70
2022/08/15 03:11:04;;;;;;;9.50;8.60;;;21.00;95.10;;;;;;633993;227;26804;-70
2022/08/15 03:13:31;;;;;;;8.75;7.95;;;21.00;95.80;;;;;;634393;227;26814;-70
2022/08/15 03:15:57;;;;;;;9.00;8.10;;;21.00;95.50;;;;;;634346;227;26559;-70
2022/08/15 03:18:24;;;;;;;8.48;7.70;;;21.00;95.40;;;;;;634461;226;26785;-70
2022/08/15 03:20:52;;;;;;;8.05;7.35;;;20.90;95.20;;;;;;634362;227;26577;-70
2022/08/15 03:23:19;;;;;;;9.15;8.25;;;20.90;95.90;;;;;;634498;226;26593;-70
2022/08/15 03:25:48;;;;;;;9.07;8.20;;;20.90;96.60;;;;;;634442;227;26555;-70
2022/08/15 03:28:15;;;;;;;8.63;7.80;;;20.90;96.00;;;;;;634399;227;26563;-69
2022/08/15 03:30:43;;;;;;;9.18;8.27;;;20.90;96.20;;;;;;634408;226;26612;-70
2022/08/15 03:33:10;;;;;;;10.00;8.25;;;20.90;96.20;;;;;;634462;226;26556;-70
2022/08/15 03:35:39;;;;;;;8.73;7.93;;;20.90;97.30;;;;;;634477;226;26559;-70
2022/08/15 03:38:07;;;;;;;8.93;8.18;;;21.00;96.70;;;;;;635502;224;26517;-69
2022/08/15 03:40:35;;;;;;;9.50;8.60;;;21.10;95.90;;;;;;635506;225;26629;-69
2022/08/15 03:43:04;;;;;;;9.30;8.48;;;21.10;97.00;;;;;;635083;226;26533;-69
2022/08/15 03:45:31;;;;;;;9.20;8.30;;;21.10;96.60;;;;;;634857;226;26537;-70
2022/08/15 03:47:59;;;;;;;8.80;7.95;;;21.10;96.60;;;;;;634803;226;26591;-69
2022/08/15 03:50:26;;;;;;;8.95;8.02;;;21.10;97.40;;;;;;634799;226;26560;-70
2022/08/15 03:52:54;;;;;;;9.52;8.73;;;21.20;97.70;;;;;;634727;226;26822;-69
2022/08/15 03:55:21;;;;;;;9.80;8.82;;;21.20;97.40;;;;;;634655;226;26589;-69
2022/08/15 03:57:48;;;;;;;8.68;7.87;;;21.30;97.80;;;;;;634436;226;26514;-70
2022/08/15 04:00:16;;;;;;;9.35;8.55;;;21.30;97.70;;;;;;634525;227;26559;-70
2022/08/15 04:02:44;;;;;;;9.27;8.48;;;21.20;97.10;;;;;;634369;227;26541;-69
2022/08/15 04:05:11;;;;;;;9.30;8.50;;;21.20;97.10;;;;;;634471;226;26553;-69
2022/08/15 04:07:38;;;;;;;10.23;9.30;;;21.20;96.10;;;;;;634458;226;26581;-70
2022/08/15 04:10:06;;;;;;;10.20;9.30;;;21.10;97.70;;;;;;634477;227;26865;-70
2022/08/15 04:12:35;;;;;;;9.45;8.55;;;21.10;97.90;;;;;;634466;226;26774;-70
2022/08/15 04:15:00;;;;;;;9.57;8.77;;;21.10;97.60;;;;;;633999;227;26618;-70
2022/08/15 04:17:27;;;;;;;9.65;8.73;;;21.00;97.40;;;;;;634131;226;26779;-70
2022/08/15 04:19:55;;;;;;;9.98;8.40;;;21.00;97.40;;;;;;634166;226;26596;-69
2022/08/15 04:22:39;;;;;;;8.95;8.15;;;21.00;97.50;;;;;;634177;226;26786;-70
2022/08/15 04:25:09;;;;;;;9.07;8.18;;;21.00;98.00;;;;;;634153;227;26870;-69
2022/08/15 04:27:36;;;;;;;9.50;8.60;;;21.00;98.00;;;;;;634055;227;26554;-70
2022/08/15 04:30:03;;;;;;;9.38;8.40;;;21.00;98.00;;;;;;634172;226;26804;-69
2022/08/15 04:32:31;;;;;;;9.95;9.13;;;20.90;97.90;;;;;;634082;227;26601;-69
2022/08/15 04:35:00;;;;;;;9.98;8.98;;;21.00;98.10;;;;;;634212;226;26637;-70
2022/08/15 04:37:28;;;;;;;9.52;8.63;;;20.90;98.60;;;;;;634139;226;26551;-69
2022/08/15 04:39:54;;;;;;;9.82;8.80;;;20.90;98.60;;;;;;634074;227;26564;-69
2022/08/15 04:42:21;;;;;;;9.60;8.18;;;21.00;98.50;;;;;;634077;226;26590;-70
2022/08/15 04:44:49;;;;;;;9.13;8.30;;;21.00;98.40;;;;;;634137;226;26869;-70
2022/08/15 04:47:16;;;;;;;10.10;9.10;;;21.00;99.00;;;;;;634143;226;26578;-70
2022/08/15 04:49:44;;;;;;;10.27;9.23;;;21.00;98.90;;;;;;635479;224;26884;-70
2022/08/15 04:52:11;;;;;;;9.32;8.43;;;21.10;97.80;;;;;;635462;226;26581;-69
2022/08/15 04:54:39;;;;;;;10.70;9.68;;;21.10;98.20;;;;;;635002;226;26622;-70
2022/08/15 04:57:06;;;;;;;9.82;8.82;;;21.20;98.30;;;;;;635115;225;26537;-70
2022/08/15 04:59:33;;;;;;;11.20;8.77;;;21.20;98.10;;;;;;634814;226;26803;-69
2022/08/15 05:02:00;;;;;;;9.18;8.38;;;21.30;98.70;;;;;;634748;226;26596;-70
2022/08/15 05:04:27;;;;;;;9.35;8.45;;;21.30;98.50;;;;;;634779;226;26834;-69
2022/08/15 05:06:54;;;;;;;9.18;8.32;;;21.40;98.10;;;;;;634648;226;26591;-70
2022/08/15 05:09:22;;;;;;;10.55;8.45;;;21.40;98.10;;;;;;634424;226;26791;-69
2022/08/15 05:11:49;;;;;;;8.48;7.78;;;21.50;98.20;;;;;;634565;227;26511;-70
2022/08/15 05:14:16;;;;;;;9.63;8.73;;;21.50;97.40;;;;;;634613;223;26775;-70
2022/08/15 05:16:43;;;;;;;9.52;8.65;;;21.60;97.60;;;;;;634559;226;26510;-68
2022/08/15 05:19:10;;;;;;;11.05;8.73;;;21.70;97.30;;;;;;634475;226;26773;-69
2022/08/15 05:21:38;;;;;;;9.35;8.45;;;21.70;96.90;;;;;;634500;226;26508;-69
2022/08/15 05:24:05;;;;;;;9.63;8.77;;;21.80;96.80;;;;;;634428;226;26820;-69
2022/08/15 05:26:32;;;;;;;8.80;7.87;;;21.90;96.70;;;;;;634140;226;26828;-69
2022/08/15 05:28:59;;;;;;;8.80;8.00;;;21.90;96.90;;;;;;634098;226;26616;-69
2022/08/15 05:31:26;;;;;;;10.35;9.38;;;22.00;96.60;;;;;;634121;226;26606;-69
2022/08/15 05:33:54;;;;;;;9.90;8.95;;;21.90;96.20;;;;;;634070;227;26616;-69
2022/08/15 05:36:22;;;;;;;9.50;8.63;;;21.90;96.50;;;;;;634152;226;26595;-69
2022/08/15 05:38:50;;;;;;;9.48;8.52;;;22.00;96.60;;;;;;634152;226;26574;-69
2022/08/15 05:41:28;;;;;;;9.23;8.43;;;22.10;96.30;;;;;;634097;227;26563;-69
2022/08/15 05:44:02;;;;;;;11.27;8.88;;;22.10;96.30;;;;;;634017;227;26614;-69
2022/08/15 05:46:31;;;;;;;9.20;8.40;;;22.30;95.70;;;;;;634202;227;26890;-69
2022/08/15 05:48:59;;;;;;;8.73;7.93;;;22.40;95.10;;;;;;633141;227;26860;-69
2022/08/15 05:51:30;;;;;;;9.02;8.32;;;22.60;94.70;;;;;;634072;227;26552;-69
2022/08/15 05:54:02;;;;;;;9.70;8.82;;;22.80;94.30;;;;;;634073;226;26635;-69
2022/08/15 05:56:31;;;;;;;8.48;7.78;;;22.80;94.30;;;;;;633607;227;26594;-70
2022/08/15 05:59:01;;;;;;;10.38;8.68;;;22.80;94.30;;;;;;632993;227;26827;-69
2022/08/15 06:01:33;;;;;;;9.02;8.13;;;22.70;94.20;;;;;;635308;224;26602;-70
2022/08/15 06:04:09;;;;;;;8.20;7.50;;;22.60;94.10;;;;;;635314;226;26561;-70
2022/08/15 06:06:38;;;;;;;8.32;7.57;;;22.50;93.90;;;;;;634790;226;26593;-69
2022/08/15 06:09:04;;;;;;;9.05;8.20;;;22.50;94.50;;;;;;634595;226;26834;-69
2022/08/15 06:11:31;;;;;;;9.20;8.30;;;22.50;94.80;;;;;;634031;227;26597;-69
2022/08/15 06:14:01;;;;;;;9.77;8.88;;;22.70;94.40;;;;;;634336;227;26604;-69
2022/08/15 06:16:31;;;;;;;9.38;8.40;;;22.70;94.40;;;;;;633911;227;26808;-69
2022/08/15 06:18:59;;;;;;;9.20;8.40;;;22.90;93.80;;;;;;634542;227;26573;-69
2022/08/15 06:21:33;;;;;;;9.27;8.38;;;23.30;93.00;;;;;;634319;227;26539;-69
2022/08/15 06:24:22;;;;;;;9.40;8.50;;;23.50;92.10;;;;;;634066;227;26584;-69
2022/08/15 06:27:11;;;;;;;8.98;8.15;;;23.40;92.00;;;;;;633832;227;26557;-68
2022/08/15 06:29:55;;;;;;;9.75;8.75;;;23.60;91.80;;;;;;625733;226;26546;-68
2022/08/15 06:32:23;;;;;;;10.35;9.27;;;23.70;91.50;;;;;;634032;227;26548;-68
2022/08/15 06:35:11;;;;;;;9.65;8.75;;;23.60;91.00;;;;;;633123;227;26568;-68
2022/08/15 06:37:37;;;;;;;9.40;8.48;;;23.60;91.00;;;;;;630053;227;26555;-68
2022/08/15 06:40:12;;;;;;;10.35;8.85;;;23.50;91.60;;;;;;633236;227;26821;-68
2022/08/15 06:42:39;;;;;;;10.05;8.68;;;23.40;92.00;;;;;;633968;225;26555;-69
2022/08/15 06:45:20;;;;;;;9.20;8.23;;;23.70;92.00;;;;;;634047;225;26845;-69
2022/08/15 06:47:47;;;;;;;10.15;9.15;;;23.70;91.90;;;;;;634486;226;26562;-68
2022/08/15 06:50:14;;;;;;;9.77;8.88;;;24.00;91.20;;;;;;634435;225;26790;-69
2022/08/15 06:52:41;;;;;;;10.25;9.35;;;24.20;90.80;;;;;;633857;227;26553;-69
2022/08/15 06:55:09;;;;;;;10.55;9.55;;;24.20;90.10;;;;;;633998;222;26829;-69
2022/08/15 06:57:37;;;;;;;10.00;9.00;;;24.40;89.10;;;;;;634219;227;26553;-69
2022/08/15 07:00:30;;;;;;;9.68;8.80;;;24.50;88.60;;;;;;633440;227;27253;-68
2022/08/15 07:02:57;;;;;;;9.90;8.90;;;24.70;88.70;;;;;;632929;223;26597;-68
2022/08/15 07:05:46;;;;;;;10.35;9.35;;;24.80;87.10;;;;;;633524;225;26606;-68
2022/08/15 07:08:31;;;;;;;10.10;9.10;;;24.80;86.60;;;;;;632977;227;27278;-68
2022/08/15 07:11:24;;;;;;;10.65;9.57;;;24.90;87.40;;;;;;633978;227;26820;-68
2022/08/15 07:13:58;;;;;;;11.38;9.52;;;24.90;88.10;;;;;;635675;223;26801;-69
2022/08/15 07:16:26;;;;;;;10.85;9.27;;;24.80;87.10;;;;;;634159;226;26813;-75
2022/08/15 07:18:53;;;;;;;10.35;9.32;;;24.80;86.40;;;;;;634729;226;26532;-70
2022/08/15 07:21:22;;;;;;;10.55;9.35;;;25.00;86.50;;;;;;634649;226;26594;-71
2022/08/15 07:24:08;;;;;;;9.95;8.98;;;25.20;84.70;;;;;;634729;226;26610;-70
2022/08/15 07:26:45;;;;;;;9.10;7.97;;;25.10;84.50;;;;;;633639;227;26610;-70
2022/08/15 07:29:13;;;;;;;8.80;8.00;;;25.20;84.00;;;;;;632102;227;26597;-71
2022/08/15 07:31:43;;;;;;;10.38;8.45;;;25.20;83.90;;;;;;629847;225;26565;-70
2022/08/15 07:34:14;;;;;;;10.50;8.23;;;25.50;81.90;;;;;;629850;223;26604;-71
2022/08/15 07:36:42;;;;;;;9.23;7.68;;;25.50;81.80;;;;;;628823;226;26598;-70
2022/08/15 07:39:22;;;;;;;8.95;8.13;;;25.70;81.30;;;;;;630367;226;26570;-71
2022/08/15 07:41:49;;;;;;;8.48;7.50;;;25.60;81.10;;;;;;629387;225;26929;-71
2022/08/15 07:44:18;;;;;;;9.15;8.25;;;25.80;80.60;;;;;;628438;226;26607;-70
2022/08/15 07:46:51;;;;;;;7.68;6.87;;;25.80;80.80;;;;;;628519;226;26644;-71
2022/08/15 07:49:17;;;;;;;7.75;7.05;;;25.90;78.60;;;;;;628542;226;26835;-71
2022/08/15 07:51:47;;;;;;;8.20;7.35;;;26.00;78.80;;;;;;629983;225;26585;-72
2022/08/15 07:54:22;;;;;;;8.57;7.72;;;26.10;79.10;;;;;;630104;222;26656;-72
2022/08/15 07:56:49;;;;;;;8.20;7.50;;;26.20;78.30;;;;;;629171;225;26590;-70
2022/08/15 07:59:19;;;;;;;8.23;7.50;;;26.10;77.10;;;;;;630006;225;26532;-70
2022/08/15 08:01:45;;;;;;;8.82;7.85;;;26.10;77.10;;;;;;627497;226;26583;-71
2022/08/15 08:04:12;;;;;;;7.60;6.90;;;26.10;76.20;;;;;;633673;226;26827;-72
2022/08/15 08:06:39;;;;;;;8.63;7.18;;;26.20;76.40;;;;;;635068;226;26521;-73
2022/08/15 08:09:10;;;;;;;8.45;7.65;;;26.20;75.50;;;;;;630300;226;26584;-73
2022/08/15 08:11:54;;;;;;;8.70;7.87;;;26.10;76.20;;;;;;629363;227;26608;-73
2022/08/15 08:14:24;;;;;;;7.78;7.07;;;26.00;77.10;;;;;;622603;230;26632;-76
2022/08/15 08:16:54;;;;;;;8.15;7.40;;;26.00;77.10;;;;;;611759;235;26641;-77
2022/08/15 08:19:28;;;;;;;7.62;6.85;;;26.10;76.70;;;;;;613470;234;26614;-71
2022/08/15 08:22:02;;;;;;;37.20;14.05;;;26.30;75.50;;;;;;616315;232;26620;-73
2022/08/15 08:24:35;;;;;;;83.20;23.10;;;26.40;74.70;;;;;;637740;223;26603;-72
2022/08/15 08:27:04;;;;;;;89.05;28.55;;;26.70;74.40;;;;;;636622;224;26615;-74
2022/08/15 08:29:47;;;;;;;97.72;27.62;;;26.80;73.30;;;;;;626348;229;26796;-74
2022/08/15 08:32:26;;;;;;;64.20;24.83;;;27.00;72.70;;;;;;632051;227;26607;-75
2022/08/15 08:34:51;;;;;;;49.75;19.50;;;27.00;72.70;;;;;;632745;227;26558;-75
2022/08/15 08:37:24;;;;;;;12.27;10.02;;;27.00;72.40;;;;;;632224;227;26539;-75
2022/08/15 08:42:40;;;;;;;9.00;7.60;;;26.90;72.70;;;;;;632525;227;26594;-75
2022/08/15 08:45:10;;;;;;;8.35;7.47;;;26.90;73.40;;;;;;632325;227;26867;-75
2022/08/15 08:47:44;;;;;;;7.62;6.93;;;27.10;71.90;;;;;;632557;227;26586;-75
2022/08/15 08:50:22;;;;;;;8.45;7.65;;;27.10;71.90;;;;;;632559;227;26534;-75
2022/08/15 08:52:55;;;;;;;8.30;7.32;;;27.00;71.80;;;;;;632338;227;26815;-75
2022/08/15 08:55:23;;;;;;;10.90;7.82;;;27.00;71.50;;;;;;632080;227;26564;-74
2022/08/15 08:57:52;;;;;;;9.32;7.47;;;27.30;70.90;;;;;;632887;227;26567;-74
2022/08/15 09:00:19;;;;;;;8.30;7.18;;;27.30;70.10;;;;;;632597;227;26774;-73
2022/08/15 09:02:48;;;;;;;8.13;7.37;;;27.40;70.60;;;;;;632672;225;26495;-74
2022/08/15 09:05:18;;;;;;;8.60;7.75;;;27.70;69.70;;;;;;632141;227;26787;-74
2022/08/15 09:07:48;;;;;;;8.35;7.55;;;28.00;68.80;;;;;;631561;227;26812;-74
2022/08/15 09:10:12;;;;;;;9.52;7.60;;;27.90;67.60;;;;;;632060;227;26504;-74
2022/08/15 09:15:12;;;;;;;8.60;7.80;;;28.50;66.30;;;;;;632403;226;26781;-73
2022/08/15 09:17:40;;;;;;;8.65;7.87;;;28.50;64.70;;;;;;632106;227;26536;-75
2022/08/15 09:20:08;;;;;;;8.32;7.62;;;28.30;64.90;;;;;;632361;226;26745;-75
2022/08/15 09:22:35;;;;;;;10.20;8.23;;;28.00;65.20;;;;;;632214;227;26564;-74
2022/08/15 09:25:03;;;;;;;8.77;7.97;;;28.00;65.50;;;;;;632382;226;26805;-75
2022/08/15 09:27:31;;;;;;;11.10;8.38;;;28.10;65.50;;;;;;632349;224;26535;-73
2022/08/15 09:29:59;;;;;;;9.45;8.52;;;28.10;65.90;;;;;;631679;227;26783;-73
2022/08/15 09:32:42;;;;;;;9.20;8.40;;;28.10;65.70;;;;;;631591;227;26804;-73
2022/08/15 09:35:22;;;;;;;8.90;7.95;;;28.20;66.10;;;;;;628189;225;26872;-73
2022/08/15 09:37:55;;;;;;;9.00;8.18;;;28.20;64.70;;;;;;633878;227;26563;-73
2022/08/15 09:40:26;;;;;;;8.55;7.70;;;28.00;64.70;;;;;;632563;227;26560;-73
2022/08/15 09:42:56;;;;;;;9.95;8.05;;;28.00;64.70;;;;;;632775;227;26569;-74
2022/08/15 09:45:32;;;;;;;9.30;8.35;;;28.00;64.30;;;;;;632219;227;26537;-73
2022/08/15 09:48:03;;;;;;;9.10;7.82;;;28.10;63.70;;;;;;632691;227;26545;-73
2022/08/15 09:50:48;;;;;;;8.95;8.02;;;28.10;63.70;;;;;;632356;227;26542;-74
2022/08/15 09:53:30;;;;;;;9.15;8.35;;;28.20;63.00;;;;;;631713;227;26567;-74
2022/08/15 09:56:01;;;;;;;8.75;7.93;;;28.10;62.70;;;;;;625966;225;26549;-74
2022/08/15 09:58:28;;;;;;;8.70;7.90;;;28.10;63.00;;;;;;625963;230;26797;-74
2022/08/15 10:01:07;;;;;;;8.68;7.80;;;28.10;62.70;;;;;;625785;230;26781;-74
2022/08/15 10:03:58;;;;;;;8.20;7.40;;;28.30;62.70;;;;;;625760;230;26579;-74
2022/08/15 10:06:26;;;;;;;8.75;7.95;;;28.30;62.70;;;;;;624809;230;26553;-73
2022/08/15 10:09:19;;;;;;;9.18;8.27;;;29.00;60.60;;;;;;625870;229;26516;-73
2022/08/15 10:12:17;;;;;;;10.10;7.90;;;29.10;60.00;;;;;;625746;230;26563;-73
2022/08/15 10:15:01;;;;;;;7.95;7.15;;;29.10;60.00;;;;;;624823;230;26537;-73
2022/08/15 10:17:41;;;;;;;8.57;7.78;;;29.40;59.40;;;;;;625347;230;26633;-73
2022/08/15 10:20:46;;;;;;;8.15;7.32;;;29.70;58.90;;;;;;625535;230;26853;-74
2022/08/15 10:23:11;;;;;;;8.30;7.60;;;29.80;58.10;;;;;;624850;230;26797;-74
2022/08/15 10:25:39;;;;;;;8.27;7.47;;;29.90;57.80;;;;;;625621;230;26509;-73
2022/08/15 10:28:23;;;;;;;9.00;8.00;;;30.20;57.00;;;;;;625411;230;26816;-73
2022/08/15 10:31:13;;;;;;;8.23;7.50;;;30.20;56.40;;;;;;625568;230;26622;-73
2022/08/15 10:33:40;;;;;;;8.40;7.47;;;30.40;56.40;;;;;;624587;230;26806;-73
2022/08/15 10:36:23;;;;;;;8.57;7.45;;;30.40;56.10;;;;;;625656;230;26518;-74
2022/08/15 10:38:51;;;;;;;8.63;7.85;;;30.10;56.20;;;;;;625838;230;26882;-73
2022/08/15 10:41:18;;;;;;;8.20;7.50;;;30.10;56.00;;;;;;625300;230;26808;-74
2022/08/15 10:43:59;;;;;;;8.02;7.40;;;30.40;55.70;;;;;;625416;230;26638;-73
2022/08/15 10:46:42;;;;;;;8.30;7.40;;;30.60;54.70;;;;;;626029;228;26563;-73
2022/08/15 10:49:30;;;;;;;8.15;7.35;;;30.60;54.80;;;;;;624211;229;26574;-73
2022/08/15 10:52:18;;;;;;;8.07;7.25;;;30.40;54.90;;;;;;625867;226;26582;-74
2022/08/15 10:54:49;;;;;;;7.97;7.28;;;30.10;55.10;;;;;;625940;223;26568;-74
2022/08/15 10:57:17;;;;;;;8.15;7.45;;;30.50;55.00;;;;;;625675;229;26583;-74
2022/08/15 10:59:44;;;;;;;8.43;7.37;;;30.50;55.00;;;;;;626207;230;26606;-73
2022/08/15 11:02:18;;;;;;;8.50;7.75;;;31.40;53.70;;;;;;626168;230;27273;-73
2022/08/15 11:04:45;;;;;;;8.07;7.28;;;31.30;53.60;;;;;;625995;230;26799;-72
2022/08/15 11:07:20;;;;;;;7.80;7.10;;;31.50;53.10;;;;;;626018;230;26538;-72
2022/08/15 11:09:51;;;;;;;8.15;7.35;;;31.40;53.00;;;;;;625908;230;26541;-73
2022/08/15 11:12:18;;;;;;;8.48;7.57;;;31.50;52.80;;;;;;625846;230;26548;-74
2022/08/15 11:14:48;;;;;;;7.85;7.05;;;31.70;52.00;;;;;;625815;230;26564;-73
2022/08/15 11:17:14;;;;;;;7.68;6.97;;;31.70;52.00;;;;;;625575;230;26794;-74
2022/08/15 11:19:44;;;;;;;8.02;7.32;;;31.80;52.00;;;;;;625867;230;26534;-74
2022/08/15 11:22:17;;;;;;;9.48;7.82;;;31.80;51.50;;;;;;625787;230;26519;-74
2022/08/15 11:24:39;;;;;;;8.68;7.65;;;31.80;51.30;;;;;;625082;230;26609;-74
2022/08/15 11:27:11;;;;;;;8.80;8.00;;;31.80;51.50;;;;;;625620;229;26601;-73
2022/08/15 11:29:39;;;;;;;7.68;7.07;;;31.50;51.20;;;;;;625427;230;26583;-73
2022/08/15 11:32:07;;;;;;;8.55;7.60;;;31.40;51.40;;;;;;625603;230;26661;-74
2022/08/15 11:34:36;;;;;;;7.57;6.87;;;31.30;51.30;;;;;;625647;230;26577;-73
2022/08/15 11:37:04;;;;;;;8.65;6.78;;;31.20;51.90;;;;;;625533;230;26825;-73
2022/08/15 11:39:31;;;;;;;8.05;7.35;;;31.00;51.30;;;;;;625234;230;26829;-73
2022/08/15 11:41:58;;;;;;;7.60;6.90;;;31.00;52.10;;;;;;625584;230;26604;-74
2022/08/15 11:44:26;;;;;;;8.50;7.60;;;30.90;52.10;;;;;;625746;230;26810;-73
2022/08/15 11:46:53;;;;;;;7.97;7.25;;;30.90;52.10;;;;;;625037;230;26563;-73
2022/08/15 11:49:23;;;;;;;8.20;7.40;;;30.90;52.00;;;;;;625844;230;26532;-74
2022/08/15 11:51:50;;;;;;;7.78;7.12;;;30.80;51.90;;;;;;625740;229;26574;-74
2022/08/15 11:54:19;;;;;;;8.35;7.55;;;31.30;51.90;;;;;;625620;230;26574;-74
2022/08/15 11:57:02;;;;;;;9.27;7.82;;;31.30;51.90;;;;;;625516;230;26567;-73
2022/08/15 11:59:30;;;;;;;7.43;6.75;;;31.50;51.70;;;;;;626999;227;26838;-70
2022/08/15 12:02:03;;;;;;;8.35;7.65;;;31.50;51.00;;;;;;626630;229;26584;-70
2022/08/15 12:04:33;;;;;;;8.20;7.40;;;31.30;51.10;;;;;;626397;223;26581;-71
2022/08/15 12:06:59;;;;;;;8.25;7.53;;;31.30;51.10;;;;;;626448;228;26536;-70
2022/08/15 12:09:26;;;;;;;9.52;7.32;;;31.20;51.00;;;;;;625811;230;26587;-70
2022/08/15 12:11:53;;;;;;;7.90;7.20;;;31.20;50.80;;;;;;626008;230;26811;-70
2022/08/15 12:14:23;;;;;;;8.02;7.37;;;31.20;50.70;;;;;;626229;230;26602;-70
2022/08/15 12:17:01;;;;;;;8.70;7.93;;;31.50;50.10;;;;;;625950;230;26554;-70
2022/08/15 12:19:52;;;;;;;8.15;7.45;;;31.80;50.00;;;;;;625817;230;26518;-70
2022/08/15 12:22:27;;;;;;;8.02;7.22;;;31.80;50.00;;;;;;625831;230;26542;-69
2022/08/15 12:24:52;;;;;;;8.65;7.70;;;32.00;49.70;;;;;;625554;224;26565;-69
2022/08/15 12:27:20;;;;;;;9.10;7.93;;;32.20;49.60;;;;;;625903;229;26533;-70
2022/08/15 12:29:48;;;;;;;8.48;7.75;;;32.20;49.20;;;;;;625913;230;26581;-70
2022/08/15 12:32:14;;;;;;;8.40;7.55;;;32.40;48.60;;;;;;625901;230;26538;-70
2022/08/15 12:34:44;;;;;;;8.70;7.87;;;32.90;48.60;;;;;;625738;224;26799;-71
2022/08/15 12:37:11;;;;;;;10.45;7.90;;;33.40;48.40;;;;;;625603;230;26545;-71
2022/08/15 12:39:40;;;;;;;14.35;8.73;;;33.80;47.20;;;;;;625656;230;26751;-74
2022/08/15 12:42:07;;;;;;;10.10;8.25;;;33.60;46.50;;;;;;625534;230;26803;-71
2022/08/15 12:44:35;;;;;;;8.07;7.32;;;33.20;46.60;;;;;;625525;230;26863;-72
2022/08/15 12:47:02;;;;;;;8.70;7.80;;;32.90;46.80;;;;;;625481;230;26757;-73
2022/08/15 12:49:29;;;;;;;9.52;7.32;;;32.60;47.20;;;;;;625596;230;26571;-73
2022/08/15 12:51:57;;;;;;;7.95;7.12;;;32.40;47.40;;;;;;625567;230;26548;-73
2022/08/15 12:54:25;;;;;;;8.68;7.95;;;31.80;48.00;;;;;;625510;230;26583;-72
2022/08/15 12:56:53;;;;;;;9.35;7.80;;;31.80;48.30;;;;;;625486;229;26598;-74
2022/08/15 12:59:21;;;;;;;8.90;7.60;;;32.00;48.50;;;;;;625524;224;26603;-73
2022/08/15 13:01:48;;;;;;;8.75;7.95;;;32.20;48.30;;;;;;625105;230;26620;-74
2022/08/15 13:04:16;;;;;;;9.82;7.78;;;32.20;48.30;;;;;;625381;230;26634;-73
2022/08/15 13:06:55;;;;;;;8.95;7.57;;;32.60;47.80;;;;;;625264;230;26590;-73
2022/08/15 13:09:22;;;;;;;8.00;7.25;;;33.20;46.90;;;;;;625922;227;26538;-73